createdAt,value
2017-11-01T00:00:44.803Z,8.5
2017-11-01T00:01:43.947Z,8.5
2017-11-01T00:02:43.089Z,8.6
2017-11-01T00:03:41.835Z,8.5
2017-11-01T00:04:41.484Z,8.6
2017-11-01T00:05:40.258Z,8.6
2017-11-01T00:06:39.284Z,8.6
2017-11-01T00:07:38.562Z,8.6
2017-11-01T00:08:37.576Z,8.6
2017-11-01T00:09:36.734Z,8.6
2017-11-01T00:10:35.896Z,8.6
2017-11-01T00:11:35.177Z,8.6
2017-11-01T00:12:33.933Z,8.6
2017-11-01T00:13:33.215Z,8.6
2017-11-01T00:14:32.304Z,8.6
2017-11-01T00:15:31.189Z,8.6
2017-11-01T00:16:30.444Z,8.6
2017-11-01T00:17:29.464Z,8.6
2017-11-01T00:18:28.607Z,8.6
2017-11-01T00:19:27.752Z,8.6
2017-11-01T00:20:27.035Z,8.6
2017-11-01T00:21:26.183Z,8.6
2017-11-01T00:22:25.058Z,8.7
2017-11-01T00:23:24.074Z,8.7
2017-11-01T00:24:23.252Z,8.7
2017-11-01T00:25:22.260Z,8.7
2017-11-01T00:26:21.784Z,8.7
2017-11-01T00:27:21.066Z,8.7
2017-11-01T00:28:19.581Z,8.7
2017-11-01T00:29:18.721Z,8.7
2017-11-01T00:30:18.517Z,8.6
2017-11-01T00:31:17.157Z,8.6
2017-11-01T00:32:16.292Z,8.6
2017-11-01T00:33:15.174Z,8.7
2017-11-01T00:34:14.684Z,8.7
2017-11-01T00:35:13.693Z,8.7
2017-11-01T00:36:12.585Z,8.7
2017-11-01T00:37:11.589Z,8.6
2017-11-01T00:38:10.971Z,8.7
2017-11-01T00:39:09.859Z,8.7
2017-11-01T00:40:09.385Z,8.7
2017-11-01T00:42:07.147Z,8.7
2017-11-01T00:43:06.392Z,8.7
2017-11-01T00:44:05.275Z,8.7
2017-11-01T00:45:04.786Z,8.7
2017-11-01T00:46:03.795Z,8.7
2017-11-01T00:47:03.216Z,8.7
2017-11-01T00:48:02.363Z,8.6
2017-11-01T00:49:01.506Z,8.6
2017-11-01T00:50:00.144Z,8.6
2017-11-01T00:50:59.128Z,8.7
2017-11-01T00:51:58.513Z,8.7
2017-11-01T00:52:57.805Z,8.7
2017-11-01T00:53:56.704Z,8.6
2017-11-01T00:54:55.855Z,8.6
2017-11-01T00:55:54.735Z,8.6
2017-11-01T00:56:53.813Z,8.6
2017-11-01T00:57:52.961Z,8.6
2017-11-01T00:58:52.484Z,8.6
2017-11-01T00:59:51.769Z,8.6
2017-11-01T01:00:50.405Z,8.6
2017-11-01T01:01:49.412Z,8.6
2017-11-01T01:02:48.556Z,8.6
2017-11-01T01:03:47.313Z,8.6
2017-11-01T01:04:46.830Z,8.6
2017-11-01T01:05:45.835Z,8.6
2017-11-01T01:06:16.158Z,8.6
2017-11-01T01:07:44.223Z,8.6
2017-11-01T01:08:43.238Z,8.6
2017-11-01T01:09:42.246Z,8.6
2017-11-01T01:10:41.667Z,8.6
2017-11-01T01:11:40.813Z,8.6
2017-11-01T01:12:39.951Z,8.6
2017-11-01T01:13:38.968Z,8.6
2017-11-01T01:14:38.244Z,8.6
2017-11-01T01:15:37.017Z,8.6
2017-11-01T01:16:35.898Z,8.6
2017-11-01T01:17:35.691Z,8.6
2017-11-01T01:18:34.332Z,8.6
2017-11-01T01:19:33.482Z,8.6
2017-11-01T01:20:32.360Z,8.6
2017-11-01T01:21:31.870Z,8.6
2017-11-01T01:22:30.747Z,8.6
2017-11-01T01:23:30.396Z,8.6
2017-11-01T01:24:28.901Z,8.6
2017-11-01T01:25:28.719Z,8.6
2017-11-01T01:26:27.231Z,8.6
2017-11-01T01:27:26.378Z,8.6
2017-11-01T01:29:24.781Z,8.6
2017-11-01T01:30:23.931Z,8.6
2017-11-01T01:31:22.958Z,8.6
2017-11-01T01:32:21.967Z,8.6
2017-11-01T01:33:21.237Z,8.6
2017-11-01T01:34:20.537Z,8.6
2017-11-01T01:35:19.823Z,8.6
2017-11-01T01:36:18.198Z,8.6
2017-11-01T01:37:17.850Z,8.6
2017-11-01T01:38:17.002Z,8.6
2017-11-01T01:39:15.520Z,8.6
2017-11-01T01:40:14.545Z,8.6
2017-11-01T01:41:14.455Z,8.6
2017-11-01T01:42:13.363Z,8.6
2017-11-01T01:43:12.135Z,8.6
2017-11-01T01:44:11.291Z,8.6
2017-11-01T01:45:10.587Z,8.6
2017-11-01T01:46:09.586Z,8.6
2017-11-01T01:47:08.862Z,8.6
2017-11-01T01:48:08.022Z,8.6
2017-11-01T01:48:38.351Z,8.6
2017-11-01T01:49:08.962Z,8.6
2017-11-01T01:50:06.364Z,8.6
2017-11-01T01:51:04.884Z,8.6
2017-11-01T01:52:04.542Z,8.6
2017-11-01T01:53:03.193Z,8.6
2017-11-01T01:55:01.458Z,8.6
2017-11-01T01:56:00.737Z,8.6
2017-11-01T01:57:00.018Z,8.6
2017-11-01T01:57:59.161Z,8.6
2017-11-01T01:58:57.677Z,8.6
2017-11-01T01:59:57.324Z,8.6
2017-11-01T02:00:56.609Z,8.6
2017-11-01T02:01:55.525Z,8.6
2017-11-01T02:02:54.813Z,8.6
2017-11-01T02:03:53.592Z,8.6
2017-11-01T02:04:52.735Z,8.6
2017-11-01T02:05:51.882Z,8.6
2017-11-01T02:06:50.897Z,8.6
2017-11-01T02:07:50.045Z,8.6
2017-11-01T02:08:48.808Z,8.6
2017-11-01T02:09:48.585Z,8.6
2017-11-01T02:11:46.619Z,8.7
2017-11-01T02:12:45.629Z,8.7
2017-11-01T02:13:45.070Z,8.6
2017-11-01T02:14:43.653Z,8.6
2017-11-01T02:15:42.806Z,8.6
2017-11-01T02:16:41.823Z,8.6
2017-11-01T02:17:41.246Z,8.6
2017-11-01T02:18:40.133Z,8.6
2017-11-01T02:19:39.274Z,8.6
2017-11-01T02:20:38.547Z,8.6
2017-11-01T02:21:37.959Z,8.6
2017-11-01T02:22:36.604Z,8.6
2017-11-01T02:23:35.626Z,8.5
2017-11-01T02:24:35.278Z,8.6
2017-11-01T02:25:33.928Z,8.5
2017-11-01T02:26:32.940Z,8.5
2017-11-01T02:27:32.463Z,8.5
2017-11-01T02:28:31.479Z,8.5
2017-11-01T02:29:30.639Z,8.5
2017-11-01T02:30:29.946Z,8.5
2017-11-01T02:31:28.964Z,8.5
2017-11-01T02:32:27.618Z,8.5
2017-11-01T02:33:27.172Z,8.5
2017-11-01T02:34:26.208Z,8.4
2017-11-01T02:35:25.230Z,8.4
2017-11-01T02:36:24.124Z,8.4
2017-11-01T02:37:23.547Z,8.4
2017-11-01T02:38:22.826Z,8.4
2017-11-01T02:39:21.979Z,8.4
2017-11-01T02:42:18.624Z,8.4
2017-11-01T02:43:18.533Z,8.4
2017-11-01T02:44:16.780Z,8.3
2017-11-01T02:45:16.708Z,8.3
2017-11-01T02:46:15.365Z,8.3
2017-11-01T02:47:14.248Z,8.3
2017-11-01T02:48:13.259Z,8.3
2017-11-01T02:50:52.771Z,8.3
2017-11-01T02:50:54.548Z,8.3
2017-11-01T02:53:09.331Z,8.3
2017-11-01T02:54:08.357Z,8.3
2017-11-01T02:55:07.519Z,8.3
2017-11-01T02:56:06.798Z,8.3
2017-11-01T02:57:05.717Z,8.3
2017-11-01T02:58:04.602Z,8.3
2017-11-01T02:59:03.893Z,8.3
2017-11-01T03:00:03.195Z,8.2
2017-11-01T03:01:02.233Z,8.2
2017-11-01T03:02:01.511Z,8.2
2017-11-01T03:03:00.147Z,8.2
2017-11-01T03:03:59.286Z,8.2
2017-11-01T03:04:58.455Z,8.2
2017-11-01T03:05:57.600Z,8.2
2017-11-01T03:06:56.880Z,8.2
2017-11-01T03:07:55.906Z,8.1
2017-11-01T03:08:26.360Z,8.1
2017-11-01T03:08:57.091Z,8.1
2017-11-01T03:09:54.363Z,8.1
2017-11-01T03:10:53.132Z,8.1
2017-11-01T03:11:52.285Z,8.1
2017-11-01T03:12:51.686Z,8.1
2017-11-01T03:13:50.323Z,8.1
2017-11-01T03:14:49.329Z,8.1
2017-11-01T03:15:49.125Z,8
2017-11-01T03:16:47.635Z,8
2017-11-01T03:17:46.524Z,8
2017-11-01T03:19:45.048Z,8
2017-11-01T03:20:44.326Z,7.9
2017-11-01T03:21:43.468Z,7.9
2017-11-01T03:22:42.350Z,7.9
2017-11-01T03:23:41.361Z,7.9
2017-11-01T03:24:40.507Z,7.9
2017-11-01T03:25:39.797Z,7.9
2017-11-01T03:26:38.939Z,7.9
2017-11-01T03:27:37.945Z,7.9
2017-11-01T03:28:36.827Z,7.9
2017-11-01T03:29:36.217Z,7.9
2017-11-01T03:30:35.368Z,7.9
2017-11-01T03:31:34.250Z,7.8
2017-11-01T03:32:33.524Z,7.8
2017-11-01T03:33:32.688Z,7.8
2017-11-01T03:34:31.435Z,7.8
2017-11-01T03:35:30.955Z,7.8
2017-11-01T03:36:29.971Z,7.8
2017-11-01T03:37:29.115Z,7.8
2017-11-01T03:38:28.260Z,7.8
2017-11-01T03:39:27.536Z,7.8
2017-11-01T03:40:26.043Z,7.8
2017-11-01T03:41:25.187Z,7.8
2017-11-01T03:42:24.569Z,7.8
2017-11-01T03:43:23.711Z,7.8
2017-11-01T03:45:21.474Z,7.7
2017-11-01T03:46:21.124Z,7.7
2017-11-01T03:47:20.269Z,7.7
2017-11-01T03:48:19.419Z,7.7
2017-11-01T03:49:18.060Z,7.7
2017-11-01T03:50:17.206Z,7.7
2017-11-01T03:51:16.476Z,7.7
2017-11-01T03:52:15.751Z,7.7
2017-11-01T03:53:14.393Z,7.7
2017-11-01T03:54:13.658Z,7.7
2017-11-01T03:55:12.806Z,7.7
2017-11-01T03:56:11.818Z,7.7
2017-11-01T03:57:10.993Z,7.7
2017-11-01T03:58:10.419Z,7.7
2017-11-01T03:59:09.707Z,7.7
2017-11-01T04:00:08.351Z,7.7
2017-11-01T04:01:07.506Z,7.7
2017-11-01T04:02:06.256Z,7.7
2017-11-01T04:03:05.667Z,7.7
2017-11-01T04:05:03.705Z,7.7
2017-11-01T04:06:02.858Z,7.7
2017-11-01T04:07:02.145Z,7.7
2017-11-01T04:08:01.428Z,7.7
2017-11-01T04:09:00.294Z,7.7
2017-11-01T04:09:59.566Z,7.7
2017-11-01T04:10:59.119Z,7.7
2017-11-01T04:11:57.514Z,7.7
2017-11-01T04:12:56.685Z,7.7
2017-11-01T04:13:55.698Z,7.7
2017-11-01T04:15:53.459Z,7.7
2017-11-01T04:16:53.107Z,7.7
2017-11-01T04:17:52.255Z,7.7
2017-11-01T04:18:51.533Z,7.7
2017-11-01T04:19:50.677Z,7.7
2017-11-01T04:20:49.190Z,7.7
2017-11-01T04:21:48.585Z,7.7
2017-11-01T04:22:47.995Z,7.7
2017-11-01T04:23:46.243Z,7.7
2017-11-01T04:24:45.635Z,7.7
2017-11-01T04:25:44.649Z,7.7
2017-11-01T04:26:44.431Z,7.7
2017-11-01T04:27:42.933Z,7.7
2017-11-01T04:28:41.952Z,7.6
2017-11-01T04:29:41.866Z,7.6
2017-11-01T04:30:40.665Z,7.6
2017-11-01T04:31:39.686Z,7.6
2017-11-01T04:32:38.829Z,7.6
2017-11-01T04:33:37.856Z,7.6
2017-11-01T04:34:36.884Z,7.6
2017-11-01T04:35:36.305Z,7.6
2017-11-01T04:37:34.487Z,7.6
2017-11-01T04:38:32.737Z,7.6
2017-11-01T04:39:32.256Z,7.6
2017-11-01T04:40:31.402Z,7.6
2017-11-01T04:41:30.284Z,7.6
2017-11-01T04:42:29.575Z,7.6
2017-11-01T04:43:28.850Z,7.6
2017-11-01T04:44:27.863Z,7.6
2017-11-01T04:45:26.872Z,7.6
2017-11-01T04:46:26.015Z,7.5
2017-11-01T04:47:25.165Z,7.5
2017-11-01T04:48:24.040Z,7.5
2017-11-01T04:49:23.057Z,7.5
2017-11-01T04:50:22.973Z,7.5
2017-11-01T04:51:21.744Z,7.5
2017-11-01T04:52:20.254Z,7.5
2017-11-01T04:53:19.396Z,7.5
2017-11-01T04:54:19.049Z,7.5
2017-11-01T04:54:49.379Z,7.5
2017-11-01T04:55:19.836Z,7.5
2017-11-01T04:55:50.163Z,7.5
2017-11-01T04:56:21.130Z,7.5
2017-11-01T04:57:15.984Z,7.4
2017-11-01T04:58:15.262Z,7.5
2017-11-01T05:00:13.283Z,7.4
2017-11-01T05:01:12.427Z,7.4
2017-11-01T05:02:11.834Z,7.4
2017-11-01T05:03:10.346Z,7.4
2017-11-01T05:04:09.503Z,7.4
2017-11-01T05:05:09.008Z,7.4
2017-11-01T05:06:08.021Z,7.4
2017-11-01T05:07:07.170Z,7.4
2017-11-01T05:08:06.051Z,7.4
2017-11-01T05:09:05.327Z,7.4
2017-11-01T05:10:04.341Z,7.4
2017-11-01T05:11:03.500Z,7.4
2017-11-01T05:12:02.651Z,7.3
2017-11-01T05:13:02.066Z,7.3
2017-11-01T05:14:00.583Z,7.3
2017-11-01T05:14:59.606Z,7.3
2017-11-01T05:15:58.496Z,7.3
2017-11-01T05:16:58.020Z,7.3
2017-11-01T05:17:57.038Z,7.3
2017-11-01T05:18:56.186Z,7.3
2017-11-01T05:19:55.351Z,7.3
2017-11-01T05:20:54.494Z,7.3
2017-11-01T05:21:53.383Z,7.3
2017-11-01T05:22:52.527Z,7.2
2017-11-01T05:23:51.816Z,7.2
2017-11-01T05:24:50.958Z,7.2
2017-11-01T05:25:49.608Z,7.2
2017-11-01T05:26:48.750Z,7.2
2017-11-01T05:27:47.637Z,7.2
2017-11-01T05:29:46.170Z,7.2
2017-11-01T05:30:45.321Z,7.2
2017-11-01T05:31:44.195Z,7.2
2017-11-01T05:32:43.613Z,7.2
2017-11-01T05:33:42.261Z,7.2
2017-11-01T05:34:12.583Z,7.2
2017-11-01T05:34:42.779Z,7.2
2017-11-01T05:35:13.732Z,7.2
2017-11-01T05:35:43.923Z,7.2
2017-11-01T05:36:14.771Z,7.2
2017-11-01T05:36:45.338Z,7.2
2017-11-01T05:37:16.057Z,7.2
2017-11-01T05:39:37.099Z,7.2
2017-11-01T05:40:36.111Z,7.2
2017-11-01T05:41:35.124Z,7.2
2017-11-01T05:42:34.531Z,7.2
2017-11-01T05:43:33.668Z,7.2
2017-11-01T05:44:32.444Z,7.2
2017-11-01T05:45:31.454Z,7.2
2017-11-01T05:46:02.317Z,7.2
2017-11-01T05:46:32.275Z,7.2
2017-11-01T05:47:02.735Z,7.2
2017-11-01T05:47:33.059Z,7.2
2017-11-01T05:48:03.516Z,7.2
2017-11-01T05:49:28.197Z,7.2
2017-11-01T05:50:26.967Z,7.3
2017-11-01T05:51:25.844Z,7.3
2017-11-01T05:52:25.492Z,7.3
2017-11-01T05:53:24.149Z,7.3
2017-11-01T05:54:23.658Z,7.3
2017-11-01T05:55:22.541Z,7.3
2017-11-01T05:56:21.686Z,7.3
2017-11-01T05:57:20.716Z,7.3
2017-11-01T05:58:19.594Z,7.3
2017-11-01T05:59:19.114Z,7.3
2017-11-01T06:00:17.891Z,7.3
2017-11-01T06:01:16.776Z,7.3
2017-11-01T06:02:16.442Z,7.3
2017-11-01T06:03:15.327Z,7.3
2017-11-01T06:04:14.349Z,7.3
2017-11-01T06:05:13.506Z,7.3
2017-11-01T06:06:12.259Z,7.3
2017-11-01T06:07:12.044Z,7.3
2017-11-01T06:08:11.084Z,7.4
2017-11-01T06:09:09.875Z,7.4
2017-11-01T06:10:08.768Z,7.4
2017-11-01T06:11:08.057Z,7.4
2017-11-01T06:12:07.076Z,7.4
2017-11-01T06:13:06.213Z,7.4
2017-11-01T06:14:05.092Z,7.4
2017-11-01T06:15:04.639Z,7.4
2017-11-01T06:16:03.778Z,7.4
2017-11-01T06:16:34.097Z,7.4
2017-11-01T06:17:05.195Z,7.4
2017-11-01T06:17:35.784Z,7.4
2017-11-01T06:18:05.736Z,7.4
2017-11-01T06:18:36.062Z,7.4
2017-11-01T06:19:59.753Z,7.5
2017-11-01T06:20:58.902Z,7.5
2017-11-01T06:21:57.915Z,7.5
2017-11-01T06:22:56.800Z,7.5
2017-11-01T06:23:55.813Z,7.5
2017-11-01T06:24:55.333Z,7.5
2017-11-01T06:25:54.203Z,7.5
2017-11-01T06:26:24.666Z,7.5
2017-11-01T06:26:54.857Z,7.5
2017-11-01T06:27:25.679Z,7.5
2017-11-01T06:27:56.006Z,7.5
2017-11-01T06:28:26.330Z,7.5
2017-11-01T06:29:50.527Z,7.5
2017-11-01T06:30:49.806Z,7.5
2017-11-01T06:32:48.198Z,7.5
2017-11-01T06:33:46.703Z,7.5
2017-11-01T06:34:46.345Z,7.5
2017-11-01T06:35:45.624Z,7.5
2017-11-01T06:36:44.423Z,7.5
2017-11-01T06:37:43.436Z,7.5
2017-11-01T06:38:42.587Z,7.5
2017-11-01T06:39:41.601Z,7.5
2017-11-01T06:40:40.607Z,7.6
2017-11-01T06:41:39.492Z,7.6
2017-11-01T06:42:38.639Z,7.6
2017-11-01T06:43:38.303Z,7.6
2017-11-01T06:44:37.299Z,7.6
2017-11-01T06:45:36.177Z,7.6
2017-11-01T06:46:35.192Z,7.6
2017-11-01T06:47:34.462Z,7.6
2017-11-01T06:48:33.486Z,7.6
2017-11-01T06:49:32.897Z,7.7
2017-11-01T06:50:31.412Z,7.7
2017-11-01T06:51:31.194Z,7.7
2017-11-01T06:52:29.837Z,7.7
2017-11-01T06:53:28.984Z,7.7
2017-11-01T06:54:28.267Z,7.7
2017-11-01T06:55:26.927Z,7.7
2017-11-01T06:56:25.938Z,7.7
2017-11-01T06:57:25.611Z,7.7
2017-11-01T06:58:24.132Z,7.7
2017-11-01T06:59:23.155Z,7.7
2017-11-01T07:00:22.182Z,7.7
2017-11-01T07:01:21.574Z,7.7
2017-11-01T07:02:20.732Z,7.7
2017-11-01T07:03:19.624Z,7.7
2017-11-01T07:04:18.506Z,7.7
2017-11-01T07:05:18.169Z,7.7
2017-11-01T07:06:17.062Z,7.7
2017-11-01T07:07:16.082Z,7.7
2017-11-01T07:08:15.225Z,7.7
2017-11-01T07:09:14.388Z,7.7
2017-11-01T07:10:13.551Z,7.7
2017-11-01T07:12:11.580Z,7.8
2017-11-01T07:13:10.593Z,7.8
2017-11-01T07:14:09.620Z,7.8
2017-11-01T07:15:09.391Z,7.8
2017-11-01T07:16:08.164Z,7.8
2017-11-01T07:17:07.304Z,7.8
2017-11-01T07:18:06.458Z,7.8
2017-11-01T07:19:05.483Z,7.8
2017-11-01T07:20:04.497Z,7.8
2017-11-01T07:22:02.524Z,7.8
2017-11-01T07:23:01.656Z,7.9
2017-11-01T07:24:00.667Z,7.9
2017-11-01T07:24:59.563Z,7.9
2017-11-01T07:25:59.203Z,7.9
2017-11-01T07:26:58.081Z,7.9
2017-11-01T07:27:57.349Z,7.8
2017-11-01T07:28:56.493Z,7.9
2017-11-01T07:29:55.636Z,7.9
2017-11-01T07:30:54.407Z,7.9
2017-11-01T07:31:53.420Z,7.9
2017-11-01T07:32:52.567Z,7.9
2017-11-01T07:33:51.863Z,7.9
2017-11-01T07:34:50.744Z,7.9
2017-11-01T07:35:49.754Z,7.9
2017-11-01T07:36:48.911Z,7.9
2017-11-01T07:37:47.934Z,7.9
2017-11-01T07:38:46.948Z,7.9
2017-11-01T07:39:45.975Z,7.9
2017-11-01T07:40:45.624Z,7.9
2017-11-01T07:41:44.640Z,8
2017-11-01T07:42:43.648Z,7.9
2017-11-01T07:43:42.797Z,7.9
2017-11-01T07:44:42.214Z,7.9
2017-11-01T07:45:40.855Z,8
2017-11-01T07:46:39.872Z,8
2017-11-01T07:48:38.011Z,8
2017-11-01T07:49:37.662Z,8
2017-11-01T07:50:36.183Z,8
2017-11-01T07:51:35.573Z,8
2017-11-01T07:53:33.757Z,8
2017-11-01T07:54:32.502Z,8
2017-11-01T07:55:31.611Z,8
2017-11-01T07:56:30.888Z,8
2017-11-01T07:57:30.310Z,8
2017-11-01T07:58:29.321Z,8
2017-11-01T07:59:28.604Z,8.1
2017-11-01T08:00:27.498Z,8.1
2017-11-01T08:01:26.972Z,8.1
2017-11-01T08:02:25.349Z,8.1
2017-11-01T08:02:56.448Z,8.1
2017-11-01T08:03:26.636Z,8.1
2017-11-01T08:03:57.227Z,8.1
2017-11-01T08:04:27.426Z,8.1
2017-11-01T08:04:57.749Z,8.1
2017-11-01T08:06:22.185Z,8.1
2017-11-01T08:07:21.200Z,8.1
2017-11-01T08:08:20.482Z,8.1
2017-11-01T08:09:19.765Z,8.1
2017-11-01T08:10:18.271Z,8.1
2017-11-01T08:11:17.541Z,8.1
2017-11-01T08:12:16.423Z,8.1
2017-11-01T08:13:15.569Z,8.1
2017-11-01T08:14:14.993Z,8.1
2017-11-01T08:15:13.512Z,8.1
2017-11-01T08:16:13.160Z,8.1
2017-11-01T08:17:12.193Z,8.1
2017-11-01T08:18:11.352Z,8.1
2017-11-01T08:19:10.516Z,8.1
2017-11-01T08:20:09.653Z,8.1
2017-11-01T08:21:08.826Z,8.1
2017-11-01T08:22:07.336Z,8.1
2017-11-01T08:23:06.616Z,8.1
2017-11-01T08:24:05.623Z,8.1
2017-11-01T08:25:05.412Z,8.1
2017-11-01T08:26:03.925Z,8.1
2017-11-01T08:27:02.807Z,8.1
2017-11-01T08:28:01.956Z,8.1
2017-11-01T08:29:01.233Z,8.1
2017-11-01T08:30:00.383Z,8.1
2017-11-01T08:30:59.531Z,8.1
2017-11-01T08:31:58.804Z,8.1
2017-11-01T08:32:57.820Z,8.1
2017-11-01T08:33:57.246Z,8.1
2017-11-01T08:34:55.880Z,8.1
2017-11-01T08:35:55.024Z,8.1
2017-11-01T08:36:54.044Z,8.1
2017-11-01T08:37:53.053Z,8.1
2017-11-01T08:38:52.562Z,8.1
2017-11-01T08:39:51.573Z,8.1
2017-11-01T08:40:50.581Z,8.1
2017-11-01T08:41:49.938Z,8.1
2017-11-01T08:42:48.582Z,8.1
2017-11-01T08:43:47.865Z,8.1
2017-11-01T08:44:46.876Z,8.1
2017-11-01T08:45:17.065Z,8.1
2017-11-01T08:45:47.521Z,8.1
2017-11-01T08:46:17.718Z,8.1
2017-11-01T08:47:44.535Z,8.1
2017-11-01T08:48:43.684Z,8.1
2017-11-01T08:49:42.503Z,8.1
2017-11-01T08:50:41.338Z,8.2
2017-11-01T08:51:40.720Z,8.2
2017-11-01T08:52:39.744Z,8.2
2017-11-01T08:53:38.892Z,8.1
2017-11-01T08:54:37.918Z,8.2
2017-11-01T08:55:37.320Z,8.2
2017-11-01T08:56:07.149Z,8.2
2017-11-01T08:56:37.474Z,8.2
2017-11-01T08:57:07.942Z,8.2
2017-11-01T08:58:34.774Z,8.2
2017-11-01T08:59:33.282Z,8.2
2017-11-01T09:00:32.430Z,8.2
2017-11-01T09:01:31.449Z,8.1
2017-11-01T09:02:31.121Z,8.2
2017-11-01T09:03:30.289Z,8.2
2017-11-01T09:04:29.427Z,8.2
2017-11-01T09:05:27.953Z,8.2
2017-11-01T09:06:27.355Z,8.2
2017-11-01T09:07:26.377Z,8.1
2017-11-01T09:08:25.553Z,8.1
2017-11-01T09:09:24.704Z,8.2
2017-11-01T09:10:23.727Z,8.2
2017-11-01T09:11:22.748Z,8.2
2017-11-01T09:12:22.037Z,8.2
2017-11-01T09:13:21.057Z,8.2
2017-11-01T09:14:20.208Z,8.2
2017-11-01T09:15:19.247Z,8.2
2017-11-01T09:16:18.266Z,8.2
2017-11-01T09:17:17.539Z,8.2
2017-11-01T09:18:16.419Z,8.2
2017-11-01T09:19:15.698Z,8.2
2017-11-01T09:20:14.717Z,8.2
2017-11-01T09:21:13.590Z,8.2
2017-11-01T09:22:13.515Z,8.2
2017-11-01T09:23:12.288Z,8.2
2017-11-01T09:24:11.177Z,8.2
2017-11-01T09:25:10.061Z,8.2
2017-11-01T09:26:09.702Z,8.2
2017-11-01T09:27:08.847Z,8.2
2017-11-01T09:27:39.175Z,8.2
2017-11-01T09:28:09.639Z,8.2
2017-11-01T09:29:06.637Z,8.2
2017-11-01T09:30:05.915Z,8.2
2017-11-01T09:31:04.923Z,8.2
2017-11-01T09:32:04.196Z,8.2
2017-11-01T09:33:03.360Z,8.2
2017-11-01T09:34:02.001Z,8.2
2017-11-01T09:35:01.408Z,8.3
2017-11-01T09:36:00.562Z,8.3
2017-11-01T09:36:59.836Z,8.3
2017-11-01T09:37:58.854Z,8.3
2017-11-01T09:38:57.730Z,8.3
2017-11-01T09:39:56.600Z,8.3
2017-11-01T09:40:55.738Z,8.3
2017-11-01T09:42:54.187Z,8.3
2017-11-01T09:43:53.327Z,8.4
2017-11-01T09:44:52.071Z,8.4
2017-11-01T09:45:51.990Z,8.4
2017-11-01T09:46:50.630Z,8.4
2017-11-01T09:47:49.380Z,8.4
2017-11-01T09:48:49.036Z,8.4
2017-11-01T09:50:47.191Z,8.4
2017-11-01T09:51:46.470Z,8.5
2017-11-01T09:52:45.391Z,8.5
2017-11-01T09:53:44.668Z,8.5
2017-11-01T09:54:43.951Z,8.5
2017-11-01T09:55:42.455Z,8.5
2017-11-01T09:57:41.120Z,8.5
2017-11-01T09:58:39.895Z,8.5
2017-11-01T09:59:38.787Z,8.5
2017-11-01T10:00:38.565Z,8.6
2017-11-01T10:01:37.077Z,8.6
2017-11-01T10:02:36.722Z,8.6
2017-11-01T10:03:35.368Z,8.6
2017-11-01T10:04:34.383Z,8.6
2017-11-01T10:05:33.898Z,8.6
2017-11-01T10:06:33.309Z,8.6
2017-11-01T10:07:31.824Z,8.6
2017-11-01T10:08:30.844Z,8.7
2017-11-01T10:09:30.760Z,8.6
2017-11-01T10:10:29.411Z,8.7
2017-11-01T10:11:28.689Z,8.7
2017-11-01T10:12:27.700Z,8.7
2017-11-01T10:13:26.840Z,8.7
2017-11-01T10:14:25.992Z,8.7
2017-11-01T10:15:24.505Z,8.7
2017-11-01T10:16:24.020Z,8.7
2017-11-01T10:17:23.035Z,8.7
2017-11-01T10:18:22.315Z,8.7
2017-11-01T10:19:21.326Z,8.7
2017-11-01T10:20:20.470Z,8.7
2017-11-01T10:21:19.488Z,8.8
2017-11-01T10:21:50.087Z,8.8
2017-11-01T10:22:20.442Z,8.8
2017-11-01T10:23:17.592Z,8.8
2017-11-01T10:24:16.621Z,8.8
2017-11-01T10:25:16.009Z,8.8
2017-11-01T10:26:15.156Z,8.8
2017-11-01T10:27:14.440Z,8.8
2017-11-01T10:28:12.960Z,8.9
2017-11-01T10:30:11.496Z,8.9
2017-11-01T10:31:10.916Z,8.9
2017-11-01T10:32:09.577Z,8.9
2017-11-01T10:33:08.592Z,9
2017-11-01T10:34:07.870Z,9
2017-11-01T10:35:06.884Z,9
2017-11-01T10:36:06.534Z,9
2017-11-01T10:38:04.566Z,9.1
2017-11-01T10:39:03.456Z,9.1
2017-11-01T10:40:02.592Z,9.1
2017-11-01T10:41:01.736Z,9.1
2017-11-01T10:42:01.018Z,9.1
2017-11-01T10:43:00.300Z,9.2
2017-11-01T10:43:59.073Z,9.2
2017-11-01T10:44:58.504Z,9.2
2017-11-01T10:45:57.154Z,9.2
2017-11-01T10:46:56.296Z,9.3
2017-11-01T10:47:55.577Z,9.3
2017-11-01T10:48:54.599Z,9.3
2017-11-01T10:49:53.610Z,9.3
2017-11-01T10:50:52.890Z,9.3
2017-11-01T10:51:51.772Z,9.4
2017-11-01T10:52:51.285Z,9.4
2017-11-01T10:53:50.559Z,9.4
2017-11-01T10:54:49.337Z,9.5
2017-11-01T10:55:48.231Z,9.5
2017-11-01T10:56:48.012Z,9.5
2017-11-01T10:57:46.521Z,9.6
2017-11-01T10:58:46.302Z,9.6
2017-11-01T10:59:45.079Z,9.6
2017-11-01T11:00:44.095Z,9.7
2017-11-01T11:01:43.102Z,9.7
2017-11-01T11:02:42.392Z,9.7
2017-11-01T11:03:41.274Z,9.7
2017-11-01T11:04:40.931Z,9.7
2017-11-01T11:05:40.216Z,9.8
2017-11-01T11:06:39.000Z,9.8
2017-11-01T11:07:38.151Z,9.8
2017-11-01T11:08:37.171Z,9.9
2017-11-01T11:09:36.459Z,9.9
2017-11-01T11:10:35.479Z,9.9
2017-11-01T11:11:34.502Z,9.9
2017-11-01T11:12:33.922Z,9.9
2017-11-01T11:13:32.806Z,10
2017-11-01T11:14:32.091Z,10
2017-11-01T11:15:31.117Z,10
2017-11-01T11:16:30.530Z,10
2017-11-01T11:17:29.415Z,10
2017-11-01T11:18:28.579Z,10
2017-11-01T11:19:27.728Z,10.1
2017-11-01T11:20:26.747Z,10.1
2017-11-01T11:21:26.053Z,10.1
2017-11-01T11:22:25.063Z,10.1
2017-11-01T11:23:23.948Z,10.1
2017-11-01T11:24:23.472Z,10.1
2017-11-01T11:25:22.493Z,10.1
2017-11-01T11:26:21.376Z,10.1
2017-11-01T11:27:20.255Z,10.1
2017-11-01T11:28:20.165Z,10.2
2017-11-01T11:29:18.670Z,10.2
2017-11-01T11:30:18.199Z,10.1
2017-11-01T11:31:17.347Z,10.2
2017-11-01T11:32:16.359Z,10.2
2017-11-01T11:33:15.370Z,10.2
2017-11-01T11:34:15.030Z,10.2
2017-11-01T11:35:13.542Z,10.2
2017-11-01T11:36:12.822Z,10.2
2017-11-01T11:37:11.833Z,10.2
2017-11-01T11:38:10.873Z,10.2
2017-11-01T11:39:10.385Z,10.2
2017-11-01T11:40:09.535Z,10.2
2017-11-01T11:41:08.678Z,10.3
2017-11-01T11:42:07.688Z,10.2
2017-11-01T11:43:06.705Z,10.2
2017-11-01T11:44:05.852Z,10.2
2017-11-01T11:45:05.274Z,10.2
2017-11-01T11:46:04.285Z,10.2
2017-11-01T11:47:03.563Z,10.2
2017-11-01T11:48:02.715Z,10.2
2017-11-01T11:49:01.866Z,10.2
2017-11-01T11:50:00.875Z,10.2
2017-11-01T11:50:59.988Z,10.2
2017-11-01T11:51:30.956Z,10.2
2017-11-01T11:52:01.282Z,10.2
2017-11-01T11:52:31.734Z,10.2
2017-11-01T11:54:56.302Z,10.2
2017-11-01T11:55:55.947Z,10.2
2017-11-01T11:56:55.377Z,10.2
2017-11-01T11:57:54.147Z,10.2
2017-11-01T11:58:53.153Z,10.2
2017-11-01T11:59:52.431Z,10.2
2017-11-01T12:00:51.576Z,10.2
2017-11-01T12:01:50.724Z,10.3
2017-11-01T12:02:49.867Z,10.2
2017-11-01T12:03:49.146Z,10.2
2017-11-01T12:04:47.808Z,10.2
2017-11-01T12:05:46.960Z,10.2
2017-11-01T12:06:46.352Z,10.2
2017-11-01T12:07:45.901Z,10.2
2017-11-01T12:08:44.540Z,10.2
2017-11-01T12:09:43.687Z,10.2
2017-11-01T12:10:42.709Z,10.2
2017-11-01T12:11:42.641Z,10.2
2017-11-01T12:12:41.281Z,10.2
2017-11-01T12:13:40.592Z,10.3
2017-11-01T12:14:39.369Z,10.3
2017-11-01T12:15:38.510Z,10.3
2017-11-01T12:16:37.661Z,10.3
2017-11-01T12:17:36.948Z,10.3
2017-11-01T12:18:35.958Z,10.3
2017-11-01T12:19:34.971Z,10.3
2017-11-01T12:20:34.485Z,10.3
2017-11-01T12:21:33.768Z,10.3
2017-11-01T12:22:32.549Z,10.3
2017-11-01T12:23:31.560Z,10.4
2017-11-01T12:24:31.073Z,10.4
2017-11-01T12:25:30.425Z,10.4
2017-11-01T12:26:29.204Z,10.4
2017-11-01T12:27:28.255Z,10.4
2017-11-01T12:28:27.405Z,10.4
2017-11-01T12:29:26.427Z,10.4
2017-11-01T12:30:25.577Z,10.5
2017-11-01T12:31:24.968Z,10.5
2017-11-01T12:32:24.000Z,10.5
2017-11-01T12:32:54.329Z,10.5
2017-11-01T12:33:24.927Z,10.5
2017-11-01T12:33:55.122Z,10.5
2017-11-01T12:34:25.592Z,10.5
2017-11-01T12:34:56.054Z,10.5
2017-11-01T12:35:26.645Z,10.5
2017-11-01T12:35:56.474Z,10.5
2017-11-01T12:37:19.795Z,10.5
2017-11-01T12:38:18.678Z,10.5
2017-11-01T12:39:17.826Z,10.5
2017-11-01T12:40:17.171Z,10.5
2017-11-01T12:41:16.193Z,10.5
2017-11-01T12:42:15.722Z,10.5
2017-11-01T12:43:15.016Z,10.5
2017-11-01T12:44:13.931Z,10.5
2017-11-01T12:45:13.352Z,10.5
2017-11-01T12:45:43.450Z,10.5
2017-11-01T12:47:11.422Z,10.5
2017-11-01T12:48:10.568Z,10.6
2017-11-01T12:49:09.706Z,10.6
2017-11-01T12:50:08.884Z,10.6
2017-11-01T12:51:08.302Z,10.6
2017-11-01T12:52:06.823Z,10.6
2017-11-01T12:53:06.212Z,10.6
2017-11-01T12:54:05.493Z,10.6
2017-11-01T12:55:04.785Z,10.6
2017-11-01T12:56:03.421Z,10.6
2017-11-01T12:57:02.573Z,10.6
2017-11-01T12:58:01.736Z,10.6
2017-11-01T12:59:00.872Z,10.6
2017-11-01T13:00:00.390Z,10.6
2017-11-01T13:00:59.405Z,10.6
2017-11-01T13:01:58.681Z,10.6
2017-11-01T13:02:57.685Z,10.6
2017-11-01T13:03:56.963Z,10.6
2017-11-01T13:04:56.235Z,10.6
2017-11-01T13:05:54.615Z,10.6
2017-11-01T13:06:54.127Z,10.6
2017-11-01T13:07:53.140Z,10.6
2017-11-01T13:08:52.800Z,10.6
2017-11-01T13:09:51.944Z,10.6
2017-11-01T13:10:50.840Z,10.6
2017-11-01T13:11:49.573Z,10.6
2017-11-01T13:12:49.089Z,10.6
2017-11-01T13:13:48.240Z,10.6
2017-11-01T13:14:47.392Z,10.6
2017-11-01T13:15:46.401Z,10.6
2017-11-01T13:16:45.550Z,10.6
2017-11-01T13:17:44.836Z,10.6
2017-11-01T13:18:43.714Z,10.6
2017-11-01T13:19:42.971Z,10.6
2017-11-01T13:20:42.495Z,10.6
2017-11-01T13:21:41.664Z,10.6
2017-11-01T13:22:40.812Z,10.6
2017-11-01T13:23:39.852Z,10.6
2017-11-01T13:24:39.012Z,10.6
2017-11-01T13:25:37.901Z,10.6
2017-11-01T13:26:37.414Z,10.6
2017-11-01T13:27:36.440Z,10.6
2017-11-01T13:28:35.719Z,10.6
2017-11-01T13:30:33.910Z,10.6
2017-11-01T13:31:32.655Z,10.6
2017-11-01T13:32:32.302Z,10.6
2017-11-01T13:33:31.600Z,10.6
2017-11-01T13:34:30.469Z,10.6
2017-11-01T13:35:29.486Z,10.6